createdAt,value
2022-11-13T00:02:24.041Z,11.40
2022-11-13T00:07:45.820Z,11.67
2022-11-13T00:13:07.488Z,10.13
2022-11-13T00:18:30.343Z,11.47
2022-11-13T00:23:53.683Z,11.67
2022-11-13T00:29:15.395Z,13.83
2022-11-13T00:34:52.554Z,14.17
2022-11-13T00:40:14.236Z,13.70
2022-11-13T00:45:35.918Z,13.07
2022-11-13T00:50:57.944Z,13.30
2022-11-13T00:56:19.675Z,13.73
2022-11-13T01:01:41.407Z,13.17
2022-11-13T01:07:03.179Z,12.80
2022-11-13T01:12:25.036Z,13.37
2022-11-13T01:17:46.719Z,13.30
2022-11-13T01:23:08.519Z,12.70
2022-11-13T01:28:30.512Z,12.90
2022-11-13T01:33:52.789Z,13.77
2022-11-13T01:39:14.566Z,13.53
2022-11-13T01:44:54.359Z,13.50
2022-11-13T01:50:16.101Z,12.90
2022-11-13T01:55:37.832Z,13.17
2022-11-13T02:00:59.600Z,13.07
2022-11-13T02:06:22.003Z,13.07
2022-11-13T02:11:44.423Z,13.50
2022-11-13T02:17:09.659Z,12.80
2022-11-13T02:22:37.255Z,12.77
2022-11-13T02:27:59.159Z,12.37
2022-11-13T02:33:22.223Z,12.40
2022-11-13T02:38:44.693Z,10.80
2022-11-13T02:44:07.654Z,10.50
2022-11-13T02:49:29.389Z,11.10
2022-11-13T02:54:51.272Z,12.23
2022-11-13T03:00:14.212Z,12.87
2022-11-13T03:05:36.405Z,12.63
2022-11-13T03:10:58.262Z,13.03
2022-11-13T03:16:20.031Z,12.33
2022-11-13T03:21:41.865Z,12.63
2022-11-13T03:27:03.736Z,13.20
2022-11-13T03:32:25.453Z,13.63
2022-11-13T03:37:47.214Z,14.37
2022-11-13T03:43:08.970Z,13.33
2022-11-13T03:48:31.054Z,13.97
2022-11-13T03:53:53.017Z,14.67
2022-11-13T03:59:14.739Z,13.70
2022-11-13T04:04:36.952Z,14.60
2022-11-13T04:09:58.684Z,13.10
2022-11-13T04:15:20.562Z,13.90
2022-11-13T04:20:42.392Z,14.27
2022-11-13T04:26:05.153Z,14.00
2022-11-13T04:31:26.854Z,15.17
2022-11-13T04:36:48.584Z,13.77
2022-11-13T04:42:30.404Z,14.93
2022-11-13T04:47:52.203Z,14.83
2022-11-13T04:53:13.911Z,14.83
2022-11-13T04:58:36.520Z,13.83
2022-11-13T05:03:58.230Z,13.73
2022-11-13T05:09:19.987Z,14.70
2022-11-13T05:14:41.750Z,14.23
2022-11-13T05:20:04.127Z,15.00
2022-11-13T05:25:25.894Z,14.03
2022-11-13T05:30:47.633Z,14.80
2022-11-13T05:36:12.271Z,14.40
2022-11-13T05:41:34.050Z,14.03
2022-11-13T05:46:55.790Z,15.37
2022-11-13T05:52:17.588Z,12.47
2022-11-13T05:57:39.293Z,11.07
2022-11-13T06:03:01.008Z,11.27
2022-11-13T06:08:22.767Z,11.93
2022-11-13T06:13:45.097Z,10.50
2022-11-13T06:19:09.304Z,10.20
2022-11-13T06:24:31.059Z,8.80
2022-11-13T06:29:52.780Z,8.67
2022-11-13T06:35:14.537Z,8.23
2022-11-13T06:40:38.637Z,8.43
2022-11-13T06:46:07.565Z,8.40
2022-11-13T06:51:30.839Z,8.23
2022-11-13T06:56:52.570Z,8.23
2022-11-13T07:02:14.336Z,8.33
2022-11-13T07:07:36.185Z,8.27
2022-11-13T07:13:01.047Z,8.63
2022-11-13T07:18:24.338Z,8.50
2022-11-13T07:23:48.961Z,9.43
2022-11-13T07:29:11.761Z,9.20
2022-11-13T07:34:33.530Z,8.70
2022-11-13T07:39:55.231Z,9.30
2022-11-13T07:45:17.118Z,9.33
2022-11-13T07:50:39.519Z,8.40
2022-11-13T07:56:03.171Z,8.53
2022-11-13T08:01:25.215Z,8.47
2022-11-13T08:06:47.001Z,8.40
2022-11-13T08:12:08.829Z,8.23
2022-11-13T08:17:30.577Z,7.77
2022-11-13T08:22:52.619Z,7.77
2022-11-13T08:28:14.921Z,8.03
2022-11-13T08:33:36.831Z,8.10
2022-11-13T08:38:58.610Z,8.20
2022-11-13T08:44:20.366Z,8.53
2022-11-13T08:49:42.058Z,9.13
2022-11-13T08:55:04.024Z,11.33
2022-11-13T09:00:26.408Z,8.80
2022-11-13T09:05:48.146Z,9.10
2022-11-13T09:11:10.068Z,8.73
2022-11-13T09:16:31.825Z,9.37
2022-11-13T09:21:53.868Z,9.77
2022-11-13T09:27:15.793Z,8.83
2022-11-13T09:32:37.514Z,8.10
2022-11-13T09:38:09.631Z,7.87
2022-11-13T09:43:35.805Z,8.53
2022-11-13T09:49:06.980Z,8.27
2022-11-13T09:54:28.882Z,8.83
2022-11-13T10:00:17.193Z,8.77
2022-11-13T10:05:54.573Z,9.83
2022-11-13T10:11:28.475Z,9.83
2022-11-13T10:17:12.279Z,9.90
2022-11-13T10:22:34.543Z,10.07
2022-11-13T10:27:59.076Z,10.33
2022-11-13T10:33:22.419Z,10.03
2022-11-13T10:38:50.246Z,8.87
2022-11-13T10:44:30.329Z,8.83
2022-11-13T10:49:52.379Z,11.27
2022-11-13T10:55:38.280Z,10.07
2022-11-13T11:01:00.133Z,10.80
2022-11-13T11:07:04.661Z,10.50
2022-11-13T11:12:16.819Z,9.83
2022-11-13T11:17:42.497Z,10.23
2022-11-13T11:23:27.071Z,10.53
2022-11-13T11:29:11.897Z,11.23
2022-11-13T11:34:47.600Z,10.67
2022-11-13T11:40:33.167Z,10.40
2022-11-13T11:45:54.946Z,10.50
2022-11-13T11:51:50.862Z,10.80
2022-11-13T11:57:27.574Z,9.87
2022-11-13T12:03:26.672Z,10.17
2022-11-13T12:08:58.817Z,10.30
2022-11-13T12:14:52.849Z,9.70
2022-11-13T12:20:14.963Z,10.70
2022-11-13T12:25:50.535Z,10.95
2022-11-13T12:31:24.366Z,10.07
2022-11-13T12:36:47.356Z,11.00
2022-11-13T12:42:48.474Z,10.52
2022-11-13T12:48:34.138Z,10.53
2022-11-13T12:53:56.239Z,11.07
2022-11-13T12:59:31.022Z,10.50
2022-11-13T13:05:12.565Z,9.90
2022-11-13T13:10:48.407Z,9.23
2022-11-13T13:16:10.704Z,9.30
2022-11-13T13:21:44.061Z,9.45
2022-11-13T13:27:23.602Z,9.07
2022-11-13T13:33:05.131Z,8.82
2022-11-13T13:38:51.931Z,9.30
2022-11-13T13:44:32.391Z,10.68
2022-11-13T13:49:54.858Z,9.32
2022-11-13T13:55:35.621Z,7.53
2022-11-13T14:01:17.696Z,8.57
2022-11-13T14:06:52.833Z,8.40
2022-11-13T14:12:22.090Z,8.02
2022-11-13T14:17:44.758Z,9.60
2022-11-13T14:23:10.183Z,8.73
2022-11-13T14:28:34.761Z,8.80
2022-11-13T14:34:00.702Z,8.98
2022-11-13T14:39:34.388Z,9.10
2022-11-13T14:45:12.268Z,8.88
2022-11-13T14:50:36.301Z,8.23
2022-11-13T14:56:04.798Z,8.60
2022-11-13T15:01:26.946Z,9.10
2022-11-13T15:06:50.784Z,9.63
2022-11-13T15:12:12.977Z,9.13
2022-11-13T15:17:36.435Z,9.60
2022-11-13T15:22:59.939Z,9.35
2022-11-13T15:28:21.727Z,9.50
2022-11-13T15:33:43.570Z,9.80
2022-11-13T15:39:07.904Z,10.10
2022-11-13T15:44:32.143Z,11.65
2022-11-13T15:50:12.395Z,10.82
2022-11-13T15:55:35.053Z,11.52
2022-11-13T16:00:56.836Z,10.00
2022-11-13T16:06:23.423Z,9.38
2022-11-13T16:11:45.196Z,13.77
2022-11-13T16:17:16.552Z,16.63
2022-11-13T16:22:38.316Z,22.98
2022-11-13T16:28:00.110Z,15.75
2022-11-13T16:33:21.802Z,12.15
2022-11-13T16:38:43.533Z,11.50
2022-11-13T16:44:05.320Z,11.20
2022-11-13T16:49:27.184Z,11.02
2022-11-13T16:54:48.931Z,12.02
2022-11-13T17:00:14.909Z,11.60
2022-11-13T17:05:36.660Z,10.75
2022-11-13T17:10:58.708Z,10.80
2022-11-13T17:16:21.766Z,10.80
2022-11-13T17:21:44.529Z,11.07
2022-11-13T17:27:06.950Z,10.77
2022-11-13T17:32:29.847Z,10.70
2022-11-13T17:37:51.677Z,12.23
2022-11-13T17:43:14.578Z,13.67
2022-11-13T17:48:36.871Z,13.20
2022-11-13T17:53:58.631Z,14.40
2022-11-13T17:59:20.389Z,13.63
2022-11-13T18:04:42.138Z,13.47
2022-11-13T18:10:04.347Z,12.37
2022-11-13T18:15:26.101Z,13.67
2022-11-13T18:20:47.848Z,12.83
2022-11-13T18:26:12.348Z,13.13
2022-11-13T18:31:34.476Z,11.55
2022-11-13T18:36:56.230Z,13.37
2022-11-13T18:42:18.064Z,13.17
2022-11-13T18:47:39.783Z,13.30
2022-11-13T18:53:01.759Z,14.27
2022-11-13T18:58:23.519Z,14.65
2022-11-13T19:04:08.155Z,14.97
2022-11-13T19:09:27.451Z,17.17
2022-11-13T19:14:49.306Z,17.00
2022-11-13T19:20:11.331Z,17.50
2022-11-13T19:25:33.108Z,18.10
2022-11-13T19:30:55.373Z,20.53
2022-11-13T19:36:18.239Z,18.20
2022-11-13T19:41:39.977Z,17.53
2022-11-13T19:47:01.738Z,18.83
2022-11-13T19:52:23.556Z,17.83
2022-11-13T19:57:46.357Z,18.67
2022-11-13T20:03:08.298Z,17.73
2022-11-13T20:08:30.774Z,18.60
2022-11-13T20:13:53.328Z,21.10
2022-11-13T20:19:15.126Z,17.97
2022-11-13T20:24:36.936Z,18.50
2022-11-13T20:29:58.757Z,17.73
2022-11-13T20:35:20.597Z,19.00
2022-11-13T20:40:42.465Z,19.87
2022-11-13T20:46:06.928Z,19.00
2022-11-13T20:51:28.962Z,20.13
2022-11-13T20:56:50.782Z,19.97
2022-11-13T21:02:13.170Z,19.20
2022-11-13T21:07:34.960Z,20.30
2022-11-13T21:12:56.805Z,19.70
2022-11-13T21:18:20.901Z,18.60
2022-11-13T21:23:42.709Z,16.90
2022-11-13T21:29:04.445Z,16.17
2022-11-13T21:34:26.203Z,15.53
2022-11-13T21:39:47.922Z,14.23
2022-11-13T21:45:10.579Z,14.00
2022-11-13T21:50:32.375Z,14.27
2022-11-13T21:55:54.156Z,13.60
2022-11-13T22:01:16.754Z,13.07
2022-11-13T22:06:39.752Z,13.10
2022-11-13T22:12:01.772Z,13.10
2022-11-13T22:17:23.529Z,12.37
2022-11-13T22:22:45.245Z,11.63
2022-11-13T22:28:07.016Z,12.40
2022-11-13T22:33:30.943Z,11.90
2022-11-13T22:38:53.278Z,11.17
2022-11-13T22:44:15.087Z,10.73
2022-11-13T22:49:36.891Z,11.60
2022-11-13T22:54:58.610Z,10.13
2022-11-13T23:00:20.453Z,9.57
2022-11-13T23:05:42.208Z,11.20
2022-11-13T23:11:09.487Z,10.73
2022-11-13T23:16:32.460Z,10.33
2022-11-13T23:21:54.193Z,12.43
2022-11-13T23:27:15.910Z,11.87
2022-11-13T23:32:37.619Z,11.13
2022-11-13T23:37:59.417Z,10.30
2022-11-13T23:43:21.981Z,10.40
2022-11-13T23:48:43.736Z,8.50
2022-11-13T23:54:05.571Z,9.37
2022-11-13T23:59:27.382Z,10.10
